עמוד ראשי
METAR-TAF:

METAR-TAF

שדות תעופה :

Izumo, יפן

קו רוחב: 35-25N, קו אורך: 132-54E, גובה: 2מטר

תצפית מזג אוויר נוכחית

הדו"ח נערך לפני 38דקות, בשעה 21:00 UTC
רוח 1קשר עם כיוונים משתנים
טמפרטורת 26 צלסיוס
לחות 94%
לחץ 1007 hPa
ראות 10 קילומטר או יותר

METAR: RJOC 242100Z AUTO VRB01KT 9999 NSC 26/25 Q1007

זמן: 06:38 (21:38 UTC)

תחזית

הדו"ח נערך לפני 4 שעות ו 33דקות, בשעה 17:05 UTC
תחזית בתוקף מ 24 ב 18 UTC עד 26 ב 00 UTC
רוח 6קשר מכיוון דרום
ראות 10 קילומטר או יותר
מעט עננים בגובה 2000רגל
זמנית מ -
25 ב 03 UTC עד 25 ב 09 UTC
מעט עננים בגובה 800רגל
עננים פזורים בגובה 1500רגל
מעט עננים בגובה 2500רגל , קומולונימבוס.
עננים בינוניים בגובה 3000רגל
סופת רעמים, גשם קל
יעשה מ
25 ב 06 UTC עד 25 ב 09 UTC
רוח 7קשר מכיוון מזרח
יעשה מ
25 ב 12 UTC עד 25 ב 15 UTC
רוח 4קשר מכיוון דרום

TAF: RJOC 241705Z 2418/2600 18006KT 9999 FEW020 TEMPO 2503/2509 -TSRA FEW008 SCT015 FEW025CB BKN030 BECMG 2506/2509 08007KT BECMG 2512/2515 17004KT

תצפיות ותחזיות מזג אוויר לגבי יותר מ- 4,000 שדות תעופה ברחבי העולם. דוחות METAR ו- TAF.

התחנות הזמינות מסומנות בנקודות צהובות ואדומות על גבי המפה.

העבר את העכבר לנקודה הצבעונית על מנת לראות את שם התחנה.

לאחר מכן, לחץ כדי לראות את תוכן ואת תחזיות מזג האוויר.

כדי לשנות את המפה: לחץ על הכפתורים הירוקים עם הפלוס השחור כדי להתקרב; על הכפתור הירוק עם המקף כדי להתרחק; או בחיצים הירוקים למפות סמוכות.


METAR-TAF: